Time;durP1;ratioP1;P1;durP2;ratioP2;P2;SDS_P1;SDS_P2;PMS_P1;PMS_P2;Temp;Humidity;BMP_temperature;BMP_pressure;BME280_temperature;BME280_humidity;BME280_pressure;Samples;Min_cycle;Max_cycle;Signal;HPM_P1;HPM_P2
2022/05/08 00:00:07;;;;;;;11.18;9.05;;;11.40;99.90;;;;;;5069003;28;20049;-76
2022/05/08 00:02:34;;;;;;;9.90;8.93;;;11.40;99.90;;;;;;5055689;28;20040;-76
2022/05/08 00:05:00;;;;;;;10.90;9.57;;;11.30;99.90;;;;;;5053913;28;20035;-76
2022/05/08 00:07:26;;;;;;;10.95;9.85;;;11.30;99.90;;;;;;5051975;28;20100;-76
2022/05/08 00:09:51;;;;;;;10.63;9.60;;;11.20;99.90;;;;;;5053457;28;20036;-76
2022/05/08 00:12:18;;;;;;;10.10;9.10;;;11.20;99.90;;;;;;5052832;28;20079;-75
2022/05/08 00:14:44;;;;;;;10.32;9.23;;;11.20;99.90;;;;;;5054061;28;20440;-76
2022/05/08 00:17:11;;;;;;;13.43;10.40;;;11.10;99.90;;;;;;5054178;28;20021;-77
2022/05/08 00:19:45;;;;;;;12.27;10.00;;;11.10;99.90;;;;;;5054171;28;20024;-76
2022/05/08 00:22:11;;;;;;;13.27;10.73;;;11.10;99.90;;;;;;5053253;28;20029;-76
2022/05/08 00:24:38;;;;;;;10.88;9.77;;;11.10;99.90;;;;;;5035656;28;20120;-76
2022/05/08 00:27:04;;;;;;;14.30;10.98;;;11.10;99.90;;;;;;5053125;28;20044;-74
2022/05/08 00:29:30;;;;;;;11.93;10.73;;;11.00;99.90;;;;;;5052822;28;20025;-76
2022/05/08 00:31:56;;;;;;;12.85;10.55;;;11.00;99.90;;;;;;5052986;28;20021;-76
2022/05/08 00:34:22;;;;;;;11.25;10.07;;;11.00;99.90;;;;;;5063702;28;20033;-77
2022/05/08 00:36:47;;;;;;;11.02;9.93;;;10.90;99.90;;;;;;5057469;28;20454;-76
2022/05/08 00:39:13;;;;;;;11.63;10.40;;;10.90;99.90;;;;;;5052673;28;20053;-75
2022/05/08 00:41:39;;;;;;;12.23;10.88;;;10.80;99.90;;;;;;5053355;28;20470;-76
2022/05/08 00:44:05;;;;;;;12.85;11.52;;;10.80;99.90;;;;;;5052752;28;20029;-73
2022/05/08 00:46:31;;;;;;;12.57;11.30;;;10.80;99.90;;;;;;5052574;28;20056;-76
2022/05/08 00:48:57;;;;;;;13.20;11.82;;;10.70;99.90;;;;;;5052618;28;20478;-76
2022/05/08 00:51:26;;;;;;;14.43;11.20;;;10.70;99.90;;;;;;5052114;28;20029;-76
2022/05/08 00:53:56;;;;;;;14.10;11.52;;;10.60;99.90;;;;;;5039480;28;20118;-76
2022/05/08 00:56:22;;;;;;;13.38;11.68;;;10.60;99.90;;;;;;5031900;28;20022;-76
2022/05/08 00:58:50;;;;;;;13.52;11.50;;;10.50;99.90;;;;;;5032783;28;20128;-76
2022/05/08 01:01:17;;;;;;;13.23;11.82;;;10.50;99.90;;;;;;5032948;28;20030;-76
2022/05/08 01:03:43;;;;;;;13.40;12.07;;;10.50;99.90;;;;;;5032940;28;20037;-76
2022/05/08 01:06:12;;;;;;;13.82;12.10;;;10.50;99.90;;;;;;5031830;28;20488;-74
2022/05/08 01:08:41;;;;;;;15.65;12.90;;;10.50;99.90;;;;;;5032664;28;20113;-76
2022/05/08 01:11:07;;;;;;;13.35;11.95;;;10.50;99.90;;;;;;5032199;28;20073;-74
2022/05/08 01:13:34;;;;;;;14.35;11.25;;;10.50;99.90;;;;;;5032556;28;20111;-76
2022/05/08 01:16:00;;;;;;;13.93;11.95;;;10.60;99.90;;;;;;5032622;28;20040;-76
2022/05/08 01:18:27;;;;;;;16.35;12.93;;;10.60;99.90;;;;;;5031433;28;20036;-76
2022/05/08 01:20:53;;;;;;;17.58;13.30;;;10.50;99.90;;;;;;5032604;28;20092;-76
2022/05/08 01:23:19;;;;;;;18.40;13.70;;;10.50;99.90;;;;;;5031739;28;20033;-76
2022/05/08 01:25:55;;;;;;;15.55;13.18;;;10.50;99.90;;;;;;5033101;28;20036;-76
2022/05/08 01:28:23;;;;;;;23.58;14.20;;;10.40;99.90;;;;;;5031765;28;20053;-76
2022/05/08 01:30:50;;;;;;;18.98;13.88;;;10.40;99.90;;;;;;5032306;28;20025;-76
2022/05/08 01:33:17;;;;;;;18.50;14.77;;;10.50;99.90;;;;;;5031414;28;20549;-76
2022/05/08 01:35:43;;;;;;;18.17;14.25;;;10.50;99.90;;;;;;5032393;28;20063;-76
2022/05/08 01:38:11;;;;;;;18.85;13.63;;;10.40;99.90;;;;;;5031791;28;20049;-73
2022/05/08 01:40:37;;;;;;;16.50;14.70;;;10.50;99.90;;;;;;5032433;28;20111;-76
2022/05/08 01:43:04;;;;;;;15.20;13.48;;;10.40;99.90;;;;;;5032216;28;20038;-76
2022/05/08 01:45:30;;;;;;;15.43;12.93;;;10.30;99.90;;;;;;5031380;28;20625;-76
2022/05/08 01:50:41;;;;;;;14.68;13.07;;;10.20;99.90;;;;;;5032081;28;20037;-76
2022/05/08 01:53:07;;;;;;;16.58;14.32;;;10.20;99.90;;;;;;5032555;28;20029;-76
2022/05/08 01:55:32;;;;;;;15.85;14.23;;;10.10;99.90;;;;;;5031469;28;20026;-75
2022/05/08 01:57:59;;;;;;;15.18;13.57;;;10.10;99.90;;;;;;5032300;28;20076;-76
2022/05/08 02:00:25;;;;;;;17.48;15.63;;;10.10;99.90;;;;;;5031015;28;20096;-76
2022/05/08 02:02:52;;;;;;;17.98;15.13;;;10.00;99.90;;;;;;5032315;28;20064;-76
2022/05/08 02:05:22;;;;;;;18.65;14.48;;;10.00;99.90;;;;;;5030959;28;20026;-76
2022/05/08 02:07:49;;;;;;;20.42;15.27;;;10.00;99.90;;;;;;5031455;28;20033;-76
2022/05/08 02:10:16;;;;;;;16.90;13.95;;;10.00;99.90;;;;;;5031500;28;20351;-75
2022/05/08 02:12:42;;;;;;;18.27;14.20;;;9.90;99.90;;;;;;5031966;28;20033;-76
2022/05/08 02:15:10;;;;;;;20.83;15.63;;;9.90;99.90;;;;;;5031691;28;20463;-73
2022/05/08 02:17:37;;;;;;;15.18;13.65;;;9.90;99.90;;;;;;5031571;28;20067;-76
2022/05/08 02:20:04;;;;;;;15.43;13.80;;;9.90;99.90;;;;;;5031325;28;20120;-75
2022/05/08 02:22:29;;;;;;;17.05;14.30;;;9.80;99.90;;;;;;5030935;28;20026;-76
2022/05/08 02:24:55;;;;;;;16.00;14.35;;;9.90;99.90;;;;;;5031998;28;20056;-75
2022/05/08 02:27:21;;;;;;;16.30;14.10;;;;;;;;;;5031350;28;20037;-75
2022/05/08 02:29:48;;;;;;;17.67;15.00;;;;;;;;;;5031650;28;20378;-75
2022/05/08 02:32:14;;;;;;;15.13;13.52;;;;;;;;;;5033676;28;20428;-73
2022/05/08 02:34:40;;;;;;;15.10;13.50;;;;;;;;;;5035555;28;20061;-75
2022/05/08 02:37:07;;;;;;;16.85;15.02;;;;;;;;;;5035666;28;20029;-75
2022/05/08 02:39:33;;;;;;;18.83;15.82;;;;;;;;;;5035897;28;20603;-76
2022/05/08 02:41:59;;;;;;;16.85;15.13;;;;;;;;;;5036361;28;20067;-75
2022/05/08 02:44:25;;;;;;;18.85;16.65;;;;;;;;;;5035145;28;20032;-75
2022/05/08 02:46:51;;;;;;;17.88;15.98;;;;;;;;;;5035988;28;20026;-76
2022/05/08 02:49:17;;;;;;;17.33;15.52;;;;;;;;;;5035318;28;20021;-75
2022/05/08 02:51:43;;;;;;;15.43;13.82;;;;;;;;;;5052446;28;20052;-75
2022/05/08 02:54:09;;;;;;;16.70;14.18;;;;;;;;;;5068937;28;20032;-79
2022/05/08 02:59:20;;;;;;;18.95;15.52;;;;;;;;;;5072308;28;20032;-76
2022/05/08 03:01:45;;;;;;;19.05;15.27;;;;;;;;;;5072691;28;20029;-77
2022/05/08 03:04:12;;;;;;;17.25;14.95;;;;;;;;;;5072083;28;20032;-74
2022/05/08 03:06:38;;;;;;;17.10;14.77;;;;;;;;;;5074457;28;20017;-77
2022/05/08 03:09:04;;;;;;;16.33;14.55;;;;;;;;;;5070746;28;20059;-75
2022/05/08 03:11:30;;;;;;;16.13;14.15;;;;;;;;;;5054224;28;20029;-76
2022/05/08 03:13:57;;;;;;;19.27;17.27;;;;;;;;;;5054620;28;20039;-76
2022/05/08 03:16:23;;;;;;;18.52;16.58;;;;;;;;;;5054132;28;20021;-75
2022/05/08 03:18:50;;;;;;;17.98;16.00;;;;;;;;;;5054681;28;20021;-76
2022/05/08 03:21:16;;;;;;;17.15;14.48;;;;;;;;;;5053984;28;20025;-74
2022/05/08 03:23:43;;;;;;;17.52;15.40;;;;;;;;;;5054493;28;20078;-76
2022/05/08 03:26:09;;;;;;;20.75;15.85;;;;;;;;;;5036902;28;20402;-76
2022/05/08 03:28:38;;;;;;;19.70;16.77;;;;;;;;;;5053798;28;20017;-75
2022/05/08 03:31:04;;;;;;;19.75;16.67;;;;;;;;;;5054608;28;20087;-76
2022/05/08 03:33:30;;;;;;;20.48;17.17;;;;;;;;;;5053690;28;20025;-75
2022/05/08 03:35:56;;;;;;;22.08;18.75;;;;;;;;;;5054162;28;20501;-75
2022/05/08 03:38:23;;;;;;;20.60;17.65;;;;;;;;;;5053373;28;20029;-75
2022/05/08 03:40:49;;;;;;;20.08;16.70;;;;;;;;;;5053975;28;20059;-76
2022/05/08 03:43:15;;;;;;;19.10;16.52;;;;;;;;;;5053524;28;20456;-73
2022/05/08 03:45:41;;;;;;;19.38;16.17;;;;;;;;;;5053949;28;20060;-75
2022/05/08 03:48:07;;;;;;;19.50;16.48;;;;;;;;;;5054183;28;20078;-76
2022/05/08 03:50:33;;;;;;;20.00;17.77;;;;;;;;;;5053387;28;20155;-76
2022/05/08 03:53:01;;;;;;;21.02;17.92;;;;;;;;;;5047422;28;20468;-75
2022/05/08 03:55:27;;;;;;;19.38;17.17;;;;;;;;;;5033865;28;20022;-76
2022/05/08 03:57:53;;;;;;;20.52;17.27;;;;;;;;;;5035023;28;20029;-75
2022/05/08 04:00:20;;;;;;;17.77;15.65;;;;;;;;;;5034672;28;20379;-74
2022/05/08 04:02:46;;;;;;;18.27;16.27;;;;;;;;;;5035247;28;20429;-75
2022/05/08 04:05:12;;;;;;;21.17;16.70;;;;;;;;;;5034579;28;20536;-75
2022/05/08 04:07:39;;;;;;;21.23;18.95;;;;;;;;;;5033557;28;20029;-75
2022/05/08 04:10:05;;;;;;;20.23;16.70;;;;;;;;;;5034219;28;20450;-75
2022/05/08 04:12:31;;;;;;;20.20;16.38;;;;;;;;;;5033401;28;20032;-75
2022/05/08 04:14:57;;;;;;;19.75;16.42;;;;;;;;;;5034102;28;20029;-75
2022/05/08 04:17:24;;;;;;;20.48;17.17;;;;;;;;;;5033234;28;20021;-74
2022/05/08 04:19:50;;;;;;;20.88;17.15;;;;;;;;;;5033606;28;20032;-75
2022/05/08 04:25:01;;;;;;;19.85;16.95;;;;;;;;;;5033304;28;20060;-75
2022/05/08 04:27:26;;;;;;;21.13;17.65;;;;;;;;;;5032747;28;20030;-74
2022/05/08 04:29:52;;;;;;;21.88;17.02;;;;;;;;;;5033506;28;20068;-75
2022/05/08 04:32:18;;;;;;;20.92;18.73;;;;;;;;;;5032997;28;20526;-72
2022/05/08 04:34:44;;;;;;;22.15;19.05;;;;;;;;;;5033065;28;20035;-74
2022/05/08 04:37:10;;;;;;;21.20;18.25;;;;;;;;;;5033210;28;20112;-74
2022/05/08 04:39:37;;;;;;;20.15;17.75;;;;;;;;;;5032232;28;20046;-75
2022/05/08 04:42:03;;;;;;;19.80;16.73;;;;;;;;;;5033265;28;20033;-75
2022/05/08 04:44:32;;;;;;;19.45;16.95;;;;;;;;;;5032207;28;20029;-76
2022/05/08 04:46:58;;;;;;;20.73;18.50;;;;;;;;;;5033011;28;20057;-76
2022/05/08 04:49:23;;;;;;;21.95;17.90;;;9.60;99.90;;;;;;5032175;28;20061;-73
2022/05/08 04:51:49;;;;;;;18.73;16.75;;;9.60;99.90;;;;;;5033176;28;20021;-74
2022/05/08 04:54:15;;;;;;;23.08;20.13;;;9.50;99.90;;;;;;5048979;28;20100;-74
2022/05/08 04:56:40;;;;;;;22.85;19.85;;;9.50;99.90;;;;;;5052064;28;20021;-74
2022/05/08 04:59:06;;;;;;;20.58;17.98;;;9.50;99.90;;;;;;5052834;28;20099;-74
2022/05/08 05:01:31;;;;;;;20.00;17.67;;;9.50;99.90;;;;;;5051968;28;20032;-73
2022/05/08 05:03:57;;;;;;;19.45;17.35;;;9.50;99.90;;;;;;5052645;28;20517;-73
2022/05/08 05:06:23;;;;;;;23.08;18.65;;;9.50;99.90;;;;;;5051941;28;20029;-73
2022/05/08 05:08:48;;;;;;;21.85;19.58;;;9.60;99.90;;;;;;5051993;28;20424;-74
2022/05/08 05:11:14;;;;;;;23.40;19.88;;;9.60;99.90;;;;;;5052723;28;20072;-74
2022/05/08 05:13:40;;;;;;;21.67;18.45;;;9.60;99.90;;;;;;5051703;28;20049;-73
2022/05/08 05:16:06;;;;;;;20.17;18.05;;;9.60;99.90;;;;;;5052240;28;20454;-74
2022/05/08 05:18:32;;;;;;;25.52;19.65;;;9.70;99.90;;;;;;5051589;28;20112;-74
2022/05/08 05:20:57;;;;;;;25.13;20.95;;;9.70;99.90;;;;;;5052281;28;20028;-74
2022/05/08 05:23:23;;;;;;;27.20;22.27;;;9.70;99.90;;;;;;5051432;28;20882;-73
2022/05/08 05:25:50;;;;;;;25.80;22.23;;;9.70;99.90;;;;;;5052514;28;20033;-73
2022/05/08 05:28:16;;;;;;;27.90;21.88;;;9.80;99.90;;;;;;5034615;28;20029;-74
2022/05/08 05:30:42;;;;;;;26.80;22.88;;;9.80;99.90;;;;;;5051875;28;20021;-74
2022/05/08 05:33:10;;;;;;;24.52;20.45;;;9.80;99.90;;;;;;5052360;28;20029;-74
2022/05/08 05:35:37;;;;;;;24.67;20.80;;;9.80;99.90;;;;;;5051355;28;20099;-74
2022/05/08 05:38:03;;;;;;;25.83;21.40;;;9.90;99.90;;;;;;5052140;28;20499;-74
2022/05/08 05:40:29;;;;;;;23.63;20.05;;;9.90;99.90;;;;;;5050639;28;20049;-73
2022/05/08 05:42:57;;;;;;;22.50;20.10;;;10.00;99.90;;;;;;5052055;28;20453;-73
2022/05/08 05:45:23;;;;;;;22.85;19.48;;;10.00;99.90;;;;;;5051373;28;20067;-72
2022/05/08 05:47:49;;;;;;;21.85;18.85;;;10.10;99.90;;;;;;5034176;28;20027;-73
2022/05/08 05:50:16;;;;;;;22.23;19.90;;;10.10;99.90;;;;;;5051921;28;20025;-73
2022/05/08 05:52:42;;;;;;;22.67;18.42;;;10.20;99.90;;;;;;5047146;28;20071;-73
2022/05/08 05:55:08;;;;;;;22.05;19.67;;;10.20;99.90;;;;;;5031746;28;20025;-73
2022/05/08 05:57:34;;;;;;;24.88;21.33;;;10.30;99.90;;;;;;5031278;28;20029;-73
2022/05/08 06:00:00;;;;;;;26.17;21.45;;;10.40;99.90;;;;;;5031930;28;20108;-73
2022/05/08 06:02:26;;;;;;;22.77;20.38;;;10.40;99.90;;;;;;5031254;28;20022;-72
2022/05/08 06:04:52;;;;;;;21.98;19.23;;;10.50;99.90;;;;;;5031990;28;20025;-73
2022/05/08 06:07:17;;;;;;;23.58;20.00;;;10.50;99.90;;;;;;5034890;28;20033;-73
2022/05/08 06:09:43;;;;;;;25.45;20.13;;;10.60;99.90;;;;;;5034795;28;20060;-73
2022/05/08 06:12:09;;;;;;;24.45;20.42;;;10.70;99.90;;;;;;5036039;28;20036;-73
2022/05/08 06:14:36;;;;;;;24.90;21.80;;;10.70;99.90;;;;;;5035187;28;20540;-74
2022/05/08 06:17:01;;;;;;;23.98;21.25;;;10.80;99.90;;;;;;5036122;28;20036;-74
2022/05/08 06:19:27;;;;;;;23.73;21.17;;;10.90;99.90;;;;;;5035136;28;20034;-75
2022/05/08 06:21:53;;;;;;;22.15;19.77;;;11.00;99.90;;;;;;5035956;28;20022;-74
2022/05/08 06:24:18;;;;;;;21.67;19.45;;;11.00;99.90;;;;;;5035523;28;20132;-74
2022/05/08 06:26:44;;;;;;;21.17;18.42;;;11.10;99.90;;;;;;5034696;28;20028;-74
2022/05/08 06:29:10;;;;;;;19.58;17.58;;;11.20;99.90;;;;;;5035773;28;20030;-75
2022/05/08 06:31:35;;;;;;;23.00;20.50;;;11.30;99.90;;;;;;5034851;28;20033;-74
2022/05/08 06:34:01;;;;;;;25.30;21.60;;;11.40;99.90;;;;;;5035543;28;20037;-74
2022/05/08 06:36:26;;;;;;;24.63;20.40;;;11.50;99.90;;;;;;5034864;28;20453;-73
2022/05/08 06:38:54;;;;;;;25.60;22.13;;;11.60;99.90;;;;;;5035142;28;20052;-75
2022/05/08 06:41:20;;;;;;;24.63;20.13;;;11.70;99.90;;;;;;5035070;28;20044;-75
2022/05/08 06:43:45;;;;;;;23.30;20.20;;;11.80;99.90;;;;;;5034602;28;20025;-74
2022/05/08 06:46:11;;;;;;;24.58;21.17;;;11.90;99.90;;;;;;5035403;28;20025;-75
2022/05/08 06:48:38;;;;;;;23.73;21.00;;;12.00;99.90;;;;;;5034606;28;20433;-74
2022/05/08 06:51:04;;;;;;;22.38;20.02;;;12.10;99.90;;;;;;5017720;28;20040;-74
2022/05/08 06:53:31;;;;;;;23.85;19.52;;;12.20;99.90;;;;;;5045125;28;20028;-73
2022/05/08 06:55:56;;;;;;;23.08;20.58;;;12.40;99.90;;;;;;5054750;28;20029;-77
2022/05/08 06:58:24;;;;;;;22.52;20.23;;;12.50;99.90;;;;;;5055346;28;20456;-74
2022/05/08 07:03:34;;;;;;;22.45;20.02;;;12.70;99.90;;;;;;5054059;28;20450;-74
2022/05/08 07:06:00;;;;;;;25.58;20.45;;;12.80;99.90;;;;;;5054912;28;20116;-74
2022/05/08 07:08:27;;;;;;;24.33;20.88;;;12.90;99.90;;;;;;5054758;28;20021;-72
2022/05/08 07:10:53;;;;;;;21.70;18.75;;;12.90;99.90;;;;;;5054046;28;20040;-73
2022/05/08 07:13:22;;;;;;;24.25;19.38;;;13.00;99.90;;;;;;5054642;28;20033;-74
2022/05/08 07:15:48;;;;;;;23.50;20.27;;;13.00;99.90;;;;;;5054057;28;20023;-74
2022/05/08 07:18:13;;;;;;;21.02;18.20;;;13.10;99.90;;;;;;5054336;28;20079;-74
2022/05/08 07:20:39;;;;;;;22.40;18.63;;;13.10;99.90;;;;;;5054031;28;20354;-74
2022/05/08 07:23:05;;;;;;;21.75;19.05;;;13.20;99.90;;;;;;5054901;28;20037;-74
2022/05/08 07:25:30;;;;;;;22.10;19.25;;;13.30;99.90;;;;;;5050127;28;20049;-73
2022/05/08 07:27:56;;;;;;;19.95;16.67;;;13.50;99.90;;;;;;5043069;28;20067;-74
2022/05/08 07:30:22;;;;;;;21.08;18.88;;;13.70;99.90;;;;;;5044113;28;20100;-74
2022/05/08 07:32:48;;;;;;;21.52;18.48;;;13.80;99.90;;;;;;5041136;28;20118;-74
2022/05/08 07:37:59;;;;;;;20.40;18.27;;;14.00;99.90;;;;;;5044655;28;20055;-76
2022/05/08 07:40:26;;;;;;;19.70;17.67;;;14.10;99.90;;;;;;5043228;28;20127;-77
2022/05/08 07:42:52;;;;;;;19.45;17.02;;;14.10;99.90;;;;;;5042791;28;20030;-76
2022/05/08 07:45:17;;;;;;;19.48;16.80;;;14.20;99.90;;;;;;5043545;28;20029;-75
2022/05/08 07:47:43;;;;;;;20.13;17.35;;;14.30;99.90;;;;;;5039865;28;20049;-74
2022/05/08 07:50:09;;;;;;;21.67;16.60;;;14.40;99.90;;;;;;5036081;28;20040;-75
2022/05/08 07:52:39;;;;;;;20.38;18.17;;;14.50;99.90;;;;;;5041234;28;20029;-75
2022/05/08 07:55:07;;;;;;;23.15;16.60;;;14.50;99.90;;;;;;5054461;28;20040;-75
2022/05/08 07:57:33;;;;;;;17.95;16.08;;;14.60;99.90;;;;;;5052703;28;20033;-75
2022/05/08 07:59:59;;;;;;;17.95;16.08;;;14.70;99.90;;;;;;5053527;28;20036;-74
2022/05/08 08:02:25;;;;;;;18.58;16.33;;;14.70;99.90;;;;;;5053809;28;20119;-75
2022/05/08 08:04:51;;;;;;;18.17;16.27;;;14.80;99.90;;;;;;5053155;28;20042;-74
2022/05/08 08:07:17;;;;;;;22.70;16.30;;;14.80;99.90;;;;;;5053659;28;20078;-74
2022/05/08 08:09:43;;;;;;;18.95;16.95;;;15.00;99.90;;;;;;5052829;28;20416;-76
2022/05/08 08:12:09;;;;;;;19.95;17.58;;;15.10;99.90;;;;;;5049873;28;20037;-73
2022/05/08 08:14:34;;;;;;;18.85;16.85;;;15.20;99.90;;;;;;5041102;28;20033;-73
2022/05/08 08:17:00;;;;;;;19.92;16.88;;;15.30;99.90;;;;;;5020309;28;20067;-73
2022/05/08 08:19:26;;;;;;;17.98;16.17;;;15.50;99.90;;;;;;5033833;28;20083;-76
2022/05/08 08:21:52;;;;;;;18.63;15.07;;;15.50;99.90;;;;;;5069838;28;20024;-72
2022/05/08 08:24:17;;;;;;;22.98;15.75;;;15.60;99.90;;;;;;5055572;28;20060;-71
2022/05/08 08:26:43;;;;;;;20.92;15.85;;;15.90;99.90;;;;;;5054522;28;20068;-72
2022/05/08 08:29:09;;;;;;;16.80;14.55;;;16.10;99.90;;;;;;5072286;28;20025;-72
2022/05/08 08:31:35;;;;;;;16.40;14.65;;;16.10;99.90;;;;;;5072180;28;20029;-73
2022/05/08 08:34:00;;;;;;;16.75;14.90;;;16.40;99.90;;;;;;5073012;28;20469;-72
2022/05/08 08:36:26;;;;;;;15.93;13.60;;;16.70;99.90;;;;;;5055120;28;20029;-74
2022/05/08 08:38:51;;;;;;;16.10;13.38;;;16.90;99.90;;;;;;5050151;28;20045;-74
2022/05/08 08:41:24;;;;;;;16.60;14.40;;;17.10;99.90;;;;;;5023444;28;20026;-74
2022/05/08 08:49:25;;;;;;;16.58;13.70;;;17.80;99.90;;;;;;5032772;28;20032;-78
2022/05/08 08:51:52;;;;;;;13.95;12.55;;;18.10;99.90;;;;;;5031950;28;20026;-78
2022/05/08 08:54:21;;;;;;;15.00;12.20;;;18.30;99.90;;;;;;5050205;28;20033;-76
2022/05/08 08:56:48;;;;;;;15.00;12.32;;;18.40;99.90;;;;;;5052396;28;20025;-82
2022/05/08 08:59:14;;;;;;;13.40;11.55;;;18.60;99.90;;;;;;5060815;28;20041;-77
2022/05/08 09:01:43;;;;;;;14.02;12.27;;;18.70;99.90;;;;;;5051764;28;20354;-75
2022/05/08 09:04:10;;;;;;;13.90;12.47;;;18.80;99.90;;;;;;5052285;28;20494;-75
2022/05/08 09:06:41;;;;;;;13.63;12.23;;;18.90;99.90;;;;;;5051918;28;20458;-73
2022/05/08 09:09:26;;;;;;;12.70;11.38;;;19.00;99.90;;;;;;5051886;28;20060;-76
2022/05/08 09:11:56;;;;;;;14.63;12.07;;;19.00;99.90;;;;;;5054089;28;20473;-76
2022/05/08 09:14:33;;;;;;;16.05;12.48;;;19.10;99.90;;;;;;5052253;28;20426;-75
2022/05/08 09:17:00;;;;;;;14.77;11.95;;;19.30;99.40;;;;;;5052589;28;20421;-76
2022/05/08 09:19:34;;;;;;;13.45;12.10;;;19.40;99.70;;;;;;5052084;28;20067;-76
2022/05/08 09:22:01;;;;;;;13.20;11.90;;;19.40;98.40;;;;;;5052446;28;20025;-75
2022/05/08 09:24:26;;;;;;;13.43;12.02;;;19.40;99.10;;;;;;5052115;28;20115;-75
2022/05/08 09:27:15;;;;;;;11.10;9.93;;;19.40;98.40;;;;;;5051530;28;20831;-76
2022/05/08 09:29:42;;;;;;;12.10;10.85;;;19.50;98.60;;;;;;5051339;28;20099;-75
2022/05/08 09:32:08;;;;;;;12.63;10.40;;;19.60;98.50;;;;;;5052085;28;20029;-75
2022/05/08 09:34:59;;;;;;;11.13;9.90;;;19.80;98.20;;;;;;5051504;28;20037;-76
2022/05/08 09:37:25;;;;;;;14.07;10.10;;;20.10;97.90;;;;;;5052552;28;20036;-75
2022/05/08 09:39:51;;;;;;;12.25;11.02;;;20.20;96.60;;;;;;5070705;28;20723;-75
2022/05/08 09:42:36;;;;;;;12.95;10.35;;;20.30;96.50;;;;;;5072305;28;20032;-75
2022/05/08 09:45:07;;;;;;;13.20;9.48;;;20.00;95.80;;;;;;5071982;28;20044;-76
2022/05/08 09:47:44;;;;;;;9.82;8.82;;;20.00;96.30;;;;;;5071568;28;20040;-75
2022/05/08 09:50:11;;;;;;;11.82;9.05;;;19.90;97.00;;;;;;5054282;28;20123;-75
2022/05/08 09:52:39;;;;;;;11.77;10.23;;;20.10;97.30;;;;;;5075992;28;20021;-76
2022/05/08 09:55:06;;;;;;;13.93;9.98;;;20.30;96.10;;;;;;5072123;28;20048;-75
2022/05/08 09:57:33;;;;;;;10.18;8.60;;;20.50;95.60;;;;;;5069446;28;20017;-75
2022/05/08 10:00:00;;;;;;;10.18;9.13;;;20.50;95.80;;;;;;5070445;28;20036;-75
2022/05/08 10:02:26;;;;;;;10.60;9.00;;;20.60;95.20;;;;;;5067329;28;20025;-76
2022/05/08 10:04:52;;;;;;;11.48;9.63;;;20.70;94.40;;;;;;5051698;28;20029;-76
2022/05/08 10:07:20;;;;;;;10.65;8.77;;;20.70;94.00;;;;;;5051793;28;20416;-76
2022/05/08 10:15:34;;;;;;;11.95;8.90;;;20.50;93.70;;;;;;5052162;28;20040;-79
2022/05/08 10:18:21;;;;;;;10.02;8.75;;;20.30;94.20;;;;;;5052318;28;20053;-77
2022/05/08 10:21:08;;;;;;;10.05;8.23;;;20.30;94.40;;;;;;5051045;28;20032;-78
2022/05/08 10:23:45;;;;;;;9.00;8.10;;;20.50;99.60;;;;;;5051256;28;20025;-78
2022/05/08 10:26:22;;;;;;;10.63;9.55;;;20.50;94.60;;;;;;5051989;28;20029;-79
2022/05/08 10:29:02;;;;;;;11.63;9.23;;;20.60;94.70;;;;;;5051399;28;20466;-77
2022/05/08 10:31:48;;;;;;;11.35;8.73;;;20.90;92.80;;;;;;5051790;28;20040;-79
2022/05/08 10:34:15;;;;;;;11.10;9.18;;;20.90;92.80;;;;;;5051866;28;20381;-79
2022/05/08 10:37:12;;;;;;;10.10;8.88;;;20.90;92.00;;;;;;5051403;28;20028;-78
2022/05/08 10:39:42;;;;;;;12.30;9.23;;;20.80;93.20;;;;;;5050362;28;20045;-82
2022/05/08 10:42:42;;;;;;;10.13;5.60;;;20.90;99.90;;;;;;5051829;28;20029;-78
2022/05/08 10:45:28;;;;;;;;;;;21.00;90.60;;;;;;5052026;28;20512;-81
2022/05/08 10:47:53;;;;;;;9.95;4.72;;;21.20;86.00;;;;;;5053186;28;19908;-81
2022/05/08 10:50:19;;;;;;;8.85;4.68;;;21.60;81.00;;;;;;5053344;28;20025;-81
2022/05/08 10:52:46;;;;;;;4.93;4.03;;;21.70;77.60;;;;;;5055994;28;20020;-75
2022/05/08 10:55:14;;;;;;;5.68;4.40;;;21.70;77.20;;;;;;5057707;28;20347;-76
2022/05/08 10:57:41;;;;;;;7.70;4.13;;;21.80;76.40;;;;;;5054242;28;20025;-76
2022/05/08 11:00:12;;;;;;;4.78;4.28;;;21.80;75.20;;;;;;5054842;28;20510;-76
2022/05/08 11:02:52;;;;;;;5.82;5.15;;;21.70;76.10;;;;;;5054098;28;20100;-75
2022/05/08 11:05:29;;;;;;;5.30;4.80;;;21.60;74.60;;;;;;5054928;28;20032;-76
2022/05/08 11:08:10;;;;;;;7.10;5.18;;;21.60;75.10;;;;;;5050702;28;20858;-83
2022/05/08 11:10:43;;;;;;;7.38;4.53;;;21.80;73.50;;;;;;5044440;28;20116;-78
2022/05/08 11:13:19;;;;;;;7.82;4.70;;;21.90;73.20;;;;;;5040293;28;20032;-76
2022/05/08 11:15:45;;;;;;;9.48;4.20;;;22.00;72.60;;;;;;5041808;28;20021;-75
2022/05/08 11:18:15;;;;;;;7.43;4.13;;;22.10;71.60;;;;;;5043242;28;20017;-75
2022/05/08 11:20:43;;;;;;;8.20;4.82;;;22.40;72.00;;;;;;5049082;28;20362;-75
2022/05/08 11:23:13;;;;;;;5.18;4.30;;;22.70;70.40;;;;;;5053530;28;20025;-75
2022/05/08 11:25:39;;;;;;;6.10;4.57;;;22.80;70.30;;;;;;5042697;28;20439;-75
2022/05/08 11:28:11;;;;;;;6.70;5.10;;;23.00;67.90;;;;;;5039488;28;20111;-75
2022/05/08 11:30:37;;;;;;;7.57;4.32;;;23.00;68.70;;;;;;5046796;28;20032;-73
2022/05/08 11:36:10;;;;;;;11.13;4.50;;;23.30;68.70;;;;;;5050654;28;20044;-76
2022/05/08 11:38:40;;;;;;;4.30;3.88;;;23.40;66.50;;;;;;5063656;28;20439;-73
2022/05/08 11:41:14;;;;;;;7.60;4.55;;;23.50;65.00;;;;;;5074239;28;20079;-76
2022/05/08 11:43:45;;;;;;;9.50;4.25;;;23.20;65.10;;;;;;5073439;28;20115;-74
2022/05/08 11:46:16;;;;;;;7.10;4.72;;;23.00;66.50;;;;;;5074017;28;20094;-75
2022/05/08 11:48:43;;;;;;;8.07;4.30;;;22.70;66.40;;;;;;5073312;28;20491;-75
2022/05/08 11:51:10;;;;;;;4.75;4.18;;;22.30;67.70;;;;;;5073705;28;20431;-75
2022/05/08 11:53:43;;;;;;;7.47;4.78;;;22.20;68.30;;;;;;5073463;28;20035;-73
2022/05/08 11:56:29;;;;;;;6.28;4.68;;;22.20;67.90;;;;;;5074004;28;20024;-75
2022/05/08 11:58:59;;;;;;;7.70;4.82;;;22.00;68.40;;;;;;5073315;28;20024;-75
2022/05/08 12:01:34;;;;;;;5.80;4.75;;;21.80;68.90;;;;;;5073826;28;20033;-75
2022/05/08 12:04:27;;;;;;;6.47;4.60;;;21.90;69.10;;;;;;5073561;28;20031;-75
2022/05/08 12:07:10;;;;;;;4.63;4.18;;;22.10;69.40;;;;;;5073074;28;20039;-75
2022/05/08 12:09:45;;;;;;;5.93;4.40;;;22.40;68.60;;;;;;5072748;28;20060;-74
2022/05/08 12:12:33;;;;;;;5.47;4.28;;;22.70;69.10;;;;;;5073724;28;20036;-75
2022/05/08 12:15:00;;;;;;;8.15;5.18;;;23.10;66.90;;;;;;5072828;28;20056;-72
2022/05/08 12:17:27;;;;;;;6.63;4.30;;;23.40;67.30;;;;;;5073470;28;20033;-72
2022/05/08 12:19:57;;;;;;;6.70;4.43;;;23.70;66.80;;;;;;5072376;28;20437;-72
2022/05/08 12:22:30;;;;;;;6.20;4.68;;;23.50;66.60;;;;;;5073477;28;20453;-74
2022/05/08 12:25:00;;;;;;;4.60;4.20;;;23.60;66.60;;;;;;5072434;28;20040;-77
2022/05/08 12:27:27;;;;;;;5.97;4.50;;;23.70;65.60;;;;;;5073562;28;20374;-73
2022/05/08 12:29:53;;;;;;;5.50;3.92;;;23.70;66.00;;;;;;5072298;28;20030;-72
2022/05/08 12:32:20;;;;;;;5.60;4.70;;;23.70;65.80;;;;;;5073179;28;20024;-72
2022/05/08 12:34:46;;;;;;;7.75;5.03;;;23.60;65.00;;;;;;5072278;28;20032;-71
2022/05/08 12:37:14;;;;;;;5.47;3.90;;;23.10;65.40;;;;;;5073233;28;20039;-72
2022/05/08 12:39:40;;;;;;;5.57;4.43;;;23.40;66.80;;;;;;5053097;28;20485;-75
2022/05/08 12:42:06;;;;;;;4.88;4.05;;;23.60;66.20;;;;;;5035258;28;20037;-71
2022/05/08 12:44:33;;;;;;;10.20;6.18;;;24.00;66.60;;;;;;5052959;28;20487;-70
2022/05/08 12:47:00;;;;;;;5.32;4.15;;;24.00;63.80;;;;;;5052214;28;20221;-70
2022/05/08 12:49:26;;;;;;;8.15;4.22;;;23.90;63.50;;;;;;5035113;28;20111;-71
2022/05/08 12:51:51;;;;;;;4.57;3.72;;;23.50;63.50;;;;;;5051894;28;20460;-73
2022/05/08 12:54:17;;;;;;;46.60;42.22;;;23.20;64.80;;;;;;5052871;28;20151;-72
2022/05/08 12:56:44;;;;;;;6.70;5.57;;;22.80;64.50;;;;;;5052032;28;20028;-72
2022/05/08 13:01:54;;;;;;;5.47;2.97;;;22.80;62.70;;;;;;5054003;28;20040;-72
2022/05/08 13:04:21;;;;;;;7.55;4.40;;;22.80;61.90;;;;;;5035032;28;20029;-70
2022/05/08 13:06:47;;;;;;;4.63;3.45;;;22.80;62.70;;;;;;5051762;28;20474;-70
2022/05/08 13:09:13;;;;;;;3.78;3.47;;;23.10;62.30;;;;;;5067503;28;20102;-70
2022/05/08 13:11:39;;;;;;;4.05;3.63;;;23.30;61.50;;;;;;5071618;28;20039;-76
2022/05/08 13:14:05;;;;;;;4.10;3.20;;;23.20;60.80;;;;;;5072321;28;20029;-71
2022/05/08 13:16:32;;;;;;;4.50;3.50;;;23.20;61.40;;;;;;5071994;28;20025;-71
2022/05/08 13:18:58;;;;;;;4.70;3.40;;;23.10;61.20;;;;;;5051897;28;20439;-70
2022/05/08 13:21:24;;;;;;;5.82;3.03;;;23.10;61.70;;;;;;5052207;28;20036;-74
2022/05/08 13:23:50;;;;;;;3.30;3.00;;;23.10;61.90;;;;;;5051090;28;20037;-75